createdAt,value
2017-01-22T00:00:50.838Z,-2.15
2017-01-22T00:02:02.464Z,-2.25
2017-01-22T00:03:13.854Z,-2.37
2017-01-22T00:04:25.301Z,-2.39
2017-01-22T00:05:36.694Z,-2.39
2017-01-22T00:06:48.086Z,-2.43
2017-01-22T00:07:59.680Z,-2.53
2017-01-22T00:09:11.076Z,-2.5
2017-01-22T00:10:22.716Z,-2.42
2017-01-22T00:11:34.109Z,-2.43
2017-01-22T00:12:45.502Z,-2.46
2017-01-22T00:13:56.887Z,-2.49
2017-01-22T00:15:08.290Z,-2.44
2017-01-22T00:16:19.731Z,-2.47
2017-01-22T00:17:31.160Z,-2.42
2017-01-22T00:18:42.557Z,-2.32
2017-01-22T00:19:53.953Z,-2.36
2017-01-22T00:21:05.353Z,-2.36
2017-01-22T00:22:16.990Z,-2.37
2017-01-22T00:23:28.587Z,-2.4
2017-01-22T00:24:40.183Z,-2.39
2017-01-22T00:25:51.983Z,-2.4
2017-01-22T00:27:03.577Z,-2.39
2017-01-22T00:28:15.040Z,-2.37
2017-01-22T00:29:26.630Z,-2.43
2017-01-22T00:30:38.041Z,-2.46
2017-01-22T00:31:49.431Z,-2.49
2017-01-22T00:33:00.826Z,-2.53
2017-01-22T00:34:12.271Z,-2.5
2017-01-22T00:35:23.668Z,-2.58
2017-01-22T00:36:35.056Z,-2.55
2017-01-22T00:37:46.448Z,-2.58
2017-01-22T00:38:57.835Z,-2.54
2017-01-22T00:40:09.283Z,-2.57
2017-01-22T00:41:20.683Z,-2.57
2017-01-22T00:42:32.077Z,-2.54
2017-01-22T00:43:43.476Z,-2.68
2017-01-22T00:44:54.870Z,-2.5
2017-01-22T00:46:06.521Z,-2.53
2017-01-22T00:47:17.915Z,-2.55
2017-01-22T00:48:29.310Z,-2.55
2017-01-22T00:49:40.694Z,-2.61
2017-01-22T00:50:52.080Z,-2.61
2017-01-22T00:52:03.523Z,-2.6
2017-01-22T00:53:15.122Z,-2.58
2017-01-22T00:54:26.516Z,-2.58
2017-01-22T00:55:37.903Z,-2.76
2017-01-22T00:56:49.489Z,-2.75
2017-01-22T00:58:00.933Z,-2.7
2017-01-22T00:59:12.356Z,-2.72
2017-01-22T01:00:23.752Z,-2.78
2017-01-22T01:01:35.342Z,-2.78
2017-01-22T01:02:46.741Z,-2.73
2017-01-22T01:03:58.388Z,-2.78
2017-01-22T01:05:09.785Z,-2.78
2017-01-22T01:06:21.180Z,-2.75
2017-01-22T01:07:32.572Z,-2.75
2017-01-22T01:08:43.967Z,-2.75
2017-01-22T01:09:55.411Z,-2.73
2017-01-22T01:11:06.798Z,-2.75
2017-01-22T01:12:18.392Z,-2.82
2017-01-22T01:13:29.781Z,-2.96
2017-01-22T01:14:41.381Z,-2.97
2017-01-22T01:15:52.827Z,-3.01
2017-01-22T01:17:04.222Z,-2.96
2017-01-22T01:18:15.813Z,-2.86
2017-01-22T01:19:27.208Z,-2.93
2017-01-22T01:20:38.610Z,-2.99
2017-01-22T01:21:50.054Z,-3
2017-01-22T01:23:01.445Z,-2.96
2017-01-22T01:24:12.839Z,-2.94
2017-01-22T01:25:24.226Z,-2.93
2017-01-22T01:26:35.621Z,-2.96
2017-01-22T01:27:47.063Z,-2.97
2017-01-22T01:28:58.456Z,-2.93
2017-01-22T01:30:09.870Z,-2.91
2017-01-22T01:31:21.259Z,-2.99
2017-01-22T01:32:32.649Z,-3.01
2017-01-22T01:33:44.099Z,-2.97
2017-01-22T01:34:55.498Z,-2.93
2017-01-22T01:36:06.891Z,-2.96
2017-01-22T01:37:18.291Z,-2.91
2017-01-22T01:38:29.689Z,-2.93
2017-01-22T01:39:41.128Z,-2.96
2017-01-22T01:40:52.721Z,-2.99
2017-01-22T01:42:04.114Z,-2.94
2017-01-22T01:43:15.503Z,-2.99
2017-01-22T01:44:26.898Z,-3.01
2017-01-22T01:45:38.341Z,-3.19
2017-01-22T01:46:49.736Z,-3.15
2017-01-22T01:48:01.160Z,-3.18
2017-01-22T01:49:12.765Z,-3.11
2017-01-22T01:50:24.156Z,-3.09
2017-01-22T01:51:35.598Z,-3.11
2017-01-22T01:52:47.194Z,-3.07
2017-01-22T01:53:58.594Z,-3.17
2017-01-22T01:55:09.993Z,-3.12
2017-01-22T01:56:21.387Z,-3.19
2017-01-22T01:57:32.831Z,-3.28
2017-01-22T01:58:44.426Z,-3.18
2017-01-22T01:59:55.816Z,-3.32
2017-01-22T02:01:07.209Z,-3.33
2017-01-22T02:02:18.598Z,-3.32
2017-01-22T02:03:30.037Z,-3.24
2017-01-22T02:04:41.425Z,-3.28
2017-01-22T02:05:52.818Z,-3.32
2017-01-22T02:07:04.209Z,-3.29
2017-01-22T02:08:15.602Z,-3.25
2017-01-22T02:09:27.242Z,-3.3
2017-01-22T02:10:38.638Z,-3.25
2017-01-22T02:11:50.031Z,-3.29
2017-01-22T02:13:01.420Z,-3.19
2017-01-22T02:14:13.010Z,-3.28
2017-01-22T02:15:24.469Z,-3.24
2017-01-22T02:16:35.858Z,-3.29
2017-01-22T02:17:47.256Z,-3.15
2017-01-22T02:18:58.646Z,-3.25
2017-01-22T02:20:10.051Z,-3.24
2017-01-22T02:21:21.491Z,-3.21
2017-01-22T02:22:33.090Z,-3.29
2017-01-22T02:23:44.482Z,-3.24
2017-01-22T02:24:55.876Z,-3.28
2017-01-22T02:26:07.265Z,-3.25
2017-01-22T02:27:18.704Z,-3.21
2017-01-22T02:28:30.098Z,-3.22
2017-01-22T02:29:41.491Z,-3.25
2017-01-22T02:30:52.888Z,-3.39
2017-01-22T02:32:04.278Z,-3.43
2017-01-22T02:33:15.718Z,-3.42
2017-01-22T02:34:27.122Z,-3.42
2017-01-22T02:35:38.528Z,-3.36
2017-01-22T02:36:49.934Z,-3.47
2017-01-22T02:38:01.529Z,-3.51
2017-01-22T02:39:13.179Z,-3.58
2017-01-22T02:40:24.576Z,-3.63
2017-01-22T02:41:35.978Z,-3.61
2017-01-22T02:42:47.372Z,-3.48
2017-01-22T02:43:58.964Z,-3.5
2017-01-22T02:45:10.401Z,-3.39
2017-01-22T02:46:21.794Z,-3.47
2017-01-22T02:47:33.178Z,-3.5
2017-01-22T02:48:44.574Z,-3.45
2017-01-22T02:49:56.165Z,-3.45
2017-01-22T02:51:07.606Z,-3.56
2017-01-22T02:52:18.994Z,-3.6
2017-01-22T02:53:30.413Z,-3.51
2017-01-22T02:54:41.803Z,-3.43
2017-01-22T02:55:53.191Z,-3.57
2017-01-22T02:57:04.639Z,-3.53
2017-01-22T02:58:16.033Z,-3.51
2017-01-22T02:59:27.427Z,-3.63
2017-01-22T03:00:38.824Z,-3.72
2017-01-22T03:01:50.215Z,-3.82
2017-01-22T03:03:01.687Z,-3.86
2017-01-22T03:04:13.078Z,-3.87
2017-01-22T03:05:24.674Z,-3.77
2017-01-22T03:06:36.069Z,-3.71
2017-01-22T03:07:47.461Z,-3.76
2017-01-22T03:08:58.898Z,-3.82
2017-01-22T03:10:10.292Z,-3.82
2017-01-22T03:11:21.679Z,-3.82
2017-01-22T03:12:33.098Z,-3.82
2017-01-22T03:13:44.493Z,-3.94
2017-01-22T03:14:55.962Z,-3.82
2017-01-22T03:16:07.357Z,-3.82
2017-01-22T03:17:18.948Z,-3.8
2017-01-22T03:18:30.338Z,-3.9
2017-01-22T03:19:41.738Z,-3.91
2017-01-22T03:20:53.182Z,-3.91
2017-01-22T03:22:04.574Z,-3.87
2017-01-22T03:23:15.976Z,-3.91
2017-01-22T03:24:27.371Z,-3.94
2017-01-22T03:25:38.764Z,-3.82
2017-01-22T03:26:50.206Z,-3.82
2017-01-22T03:28:01.604Z,-3.77
2017-01-22T03:29:12.999Z,-3.86
2017-01-22T03:30:24.390Z,-3.77
2017-01-22T03:31:35.783Z,-3.83
2017-01-22T03:32:47.226Z,-3.88
2017-01-22T03:33:58.616Z,-3.82
2017-01-22T03:35:10.008Z,-3.9
2017-01-22T03:36:21.401Z,-3.77
2017-01-22T03:37:33.004Z,-3.76
2017-01-22T03:38:44.448Z,-3.93
2017-01-22T03:39:56.037Z,-3.96
2017-01-22T03:41:07.834Z,-3.91
2017-01-22T03:42:19.425Z,-3.94
2017-01-22T03:43:30.814Z,-3.94
2017-01-22T03:44:42.256Z,-3.98
2017-01-22T03:45:53.649Z,-4
2017-01-22T03:47:05.036Z,-3.94
2017-01-22T03:48:16.627Z,-3.88
2017-01-22T03:49:28.012Z,-3.9
2017-01-22T03:50:39.651Z,-3.93
2017-01-22T03:51:51.046Z,-3.96
2017-01-22T03:53:02.436Z,-3.94
2017-01-22T03:54:13.839Z,-3.9
2017-01-22T03:55:25.432Z,-3.94
2017-01-22T03:56:36.870Z,-3.91
2017-01-22T03:57:48.265Z,-3.94
2017-01-22T03:58:59.667Z,-3.91
2017-01-22T04:00:11.067Z,-3.94
2017-01-22T04:01:22.461Z,-4.06
2017-01-22T04:02:33.902Z,-3.96
2017-01-22T04:03:45.290Z,-3.94
2017-01-22T04:04:56.686Z,-3.98
2017-01-22T04:06:08.282Z,-4
2017-01-22T04:07:19.683Z,-3.97
2017-01-22T04:08:31.135Z,-4
2017-01-22T04:09:42.733Z,-3.93
2017-01-22T04:10:54.123Z,-3.93
2017-01-22T04:12:05.527Z,-4
2017-01-22T04:13:16.923Z,-4
2017-01-22T04:14:28.394Z,-4.06
2017-01-22T04:15:39.794Z,-4.16
2017-01-22T04:16:51.397Z,-4.22
2017-01-22T04:18:02.786Z,-4.06
2017-01-22T04:19:14.175Z,-4.05
2017-01-22T04:20:25.612Z,-4.09
2017-01-22T04:21:37.036Z,-4.23
2017-01-22T04:22:48.429Z,-4.23
2017-01-22T04:24:00.014Z,-4.16
2017-01-22T04:25:11.404Z,-4.15
2017-01-22T04:26:23.066Z,-4.18
2017-01-22T04:27:34.460Z,-4.16
2017-01-22T04:28:45.851Z,-4.15
2017-01-22T04:29:57.247Z,-4.09
2017-01-22T04:31:08.646Z,-4.09
2017-01-22T04:32:20.292Z,-4.12
2017-01-22T04:33:31.684Z,-4.11
2017-01-22T04:34:43.275Z,-4.19
2017-01-22T04:35:54.664Z,-4.18
2017-01-22T04:37:06.054Z,-4.23
2017-01-22T04:38:17.495Z,-4.25
2017-01-22T04:39:28.892Z,-4.25
2017-01-22T04:40:40.484Z,-4.26
2017-01-22T04:41:51.899Z,-4.23
2017-01-22T04:43:03.293Z,-4.19
2017-01-22T04:44:14.740Z,-4.23
2017-01-22T04:45:26.161Z,-4.22
2017-01-22T04:46:37.552Z,-4.11
2017-01-22T04:47:48.941Z,-4.16
2017-01-22T04:49:00.529Z,-4.15
2017-01-22T04:50:11.973Z,-4.15
2017-01-22T04:51:23.364Z,-4.11
2017-01-22T04:52:34.954Z,-4.19
2017-01-22T04:53:46.341Z,-4.18
2017-01-22T04:54:57.933Z,-4.19
2017-01-22T04:56:09.370Z,-4.19
2017-01-22T04:57:20.764Z,-4.25
2017-01-22T04:58:32.155Z,-4.27
2017-01-22T04:59:43.547Z,-4.26
2017-01-22T05:00:54.942Z,-4.36
2017-01-22T05:02:06.386Z,-4.34
2017-01-22T05:03:17.778Z,-4.27
2017-01-22T05:04:29.168Z,-4.29
2017-01-22T05:05:40.763Z,-4.19
2017-01-22T05:06:52.154Z,-4.33
2017-01-22T05:08:03.595Z,-4.3
2017-01-22T05:09:14.990Z,-4.44
2017-01-22T05:10:26.380Z,-4.41
2017-01-22T05:11:37.769Z,-4.45
2017-01-22T05:12:49.162Z,-4.44
2017-01-22T05:14:00.602Z,-4.41
2017-01-22T05:15:11.993Z,-4.44
2017-01-22T05:16:23.387Z,-4.41
2017-01-22T05:17:34.776Z,-4.37
2017-01-22T05:18:46.166Z,-4.43
2017-01-22T05:19:57.610Z,-4.37
2017-01-22T05:21:08.999Z,-4.29
2017-01-22T05:22:20.388Z,-4.34
2017-01-22T05:23:31.773Z,-4.37
2017-01-22T05:24:43.371Z,-4.36
2017-01-22T05:25:55.012Z,-4.34
2017-01-22T05:27:06.404Z,-4.3
2017-01-22T05:28:17.998Z,-4.33
2017-01-22T05:29:29.381Z,-4.43
2017-01-22T05:30:40.782Z,-4.45
2017-01-22T05:31:52.424Z,-4.47
2017-01-22T05:33:03.821Z,-4.54
2017-01-22T05:34:15.413Z,-4.43
2017-01-22T05:35:26.795Z,-4.39
2017-01-22T05:36:38.190Z,-4.5
2017-01-22T05:37:49.631Z,-4.5
2017-01-22T05:39:01.022Z,-4.53
2017-01-22T05:40:12.618Z,-4.39
2017-01-22T05:41:24.013Z,-4.47
2017-01-22T05:42:35.407Z,-4.53
2017-01-22T05:43:46.851Z,-4.48
2017-01-22T05:44:58.241Z,-4.48
2017-01-22T05:46:09.666Z,-4.47
2017-01-22T05:47:21.057Z,-4.53
2017-01-22T05:48:32.446Z,-4.59
2017-01-22T05:49:43.917Z,-4.59
2017-01-22T05:50:55.320Z,-4.62
2017-01-22T05:52:06.920Z,-4.57
2017-01-22T05:53:18.311Z,-4.63
2017-01-22T05:54:29.904Z,-4.62
2017-01-22T05:55:41.346Z,-4.62
2017-01-22T05:56:52.739Z,-4.62
2017-01-22T05:58:04.128Z,-4.65
2017-01-22T05:59:15.522Z,-4.65
2017-01-22T06:00:26.912Z,-4.57
2017-01-22T06:01:38.353Z,-4.65
2017-01-22T06:02:49.753Z,-4.63
2017-01-22T06:04:01.143Z,-4.66
2017-01-22T06:05:12.529Z,-4.65
2017-01-22T06:06:23.919Z,-4.62
2017-01-22T06:07:35.359Z,-4.63
2017-01-22T06:08:47.163Z,-4.66
2017-01-22T06:09:58.752Z,-4.75
2017-01-22T06:11:10.143Z,-4.72
2017-01-22T06:12:21.533Z,-4.8
2017-01-22T06:13:33.177Z,-4.76
2017-01-22T06:14:44.594Z,-4.68
2017-01-22T06:15:56.184Z,-4.69
2017-01-22T06:17:07.580Z,-4.63
2017-01-22T06:18:18.985Z,-4.65
2017-01-22T06:19:30.425Z,-4.55
2017-01-22T06:20:41.810Z,-4.59
2017-01-22T06:21:53.203Z,-4.62
2017-01-22T06:23:04.594Z,-4.65
2017-01-22T06:24:15.994Z,-4.69
2017-01-22T06:25:27.429Z,-4.69
2017-01-22T06:26:39.026Z,-4.66
2017-01-22T06:27:50.415Z,-4.72
2017-01-22T06:29:01.811Z,-4.63
2017-01-22T06:30:13.210Z,-4.62
2017-01-22T06:31:24.647Z,-4.55
2017-01-22T06:32:36.044Z,-4.68
2017-01-22T06:33:47.630Z,-4.76
2017-01-22T06:34:59.020Z,-4.66
2017-01-22T06:36:10.613Z,-4.72
2017-01-22T06:37:22.053Z,-4.84
2017-01-22T06:38:33.442Z,-4.79
2017-01-22T06:39:44.834Z,-4.84
2017-01-22T06:40:56.225Z,-4.86
2017-01-22T06:42:07.627Z,-4.83
2017-01-22T06:43:19.071Z,-4.76
2017-01-22T06:44:30.676Z,-4.86
2017-01-22T06:45:42.065Z,-4.92
2017-01-22T06:46:53.452Z,-4.84
2017-01-22T06:48:04.867Z,-4.8
2017-01-22T06:49:16.315Z,-4.87
2017-01-22T06:50:27.711Z,-4.86
2017-01-22T06:51:39.114Z,-4.89
2017-01-22T06:52:50.705Z,-4.83
2017-01-22T06:54:02.096Z,-4.93
2017-01-22T06:55:13.546Z,-4.75
2017-01-22T06:56:24.938Z,-4.72
2017-01-22T06:57:36.532Z,-4.83
2017-01-22T06:58:47.932Z,-4.83
2017-01-22T06:59:59.347Z,-4.83
2017-01-22T07:01:10.788Z,-4.92
2017-01-22T07:02:22.178Z,-4.87
2017-01-22T07:03:33.769Z,-4.89
2017-01-22T07:04:45.159Z,-4.79
2017-01-22T07:05:56.550Z,-4.89
2017-01-22T07:07:07.991Z,-4.97
2017-01-22T07:08:19.387Z,-4.97
2017-01-22T07:09:30.970Z,-5
2017-01-22T07:10:42.562Z,-4.92
2017-01-22T07:11:53.964Z,-4.93
2017-01-22T07:13:05.405Z,-4.93
2017-01-22T07:14:16.996Z,-5.07
2017-01-22T07:15:28.388Z,-4.89
2017-01-22T07:16:39.769Z,-4.93
2017-01-22T07:17:51.163Z,-4.87
2017-01-22T07:19:02.751Z,-4.84
2017-01-22T07:20:14.149Z,-4.92
2017-01-22T07:21:25.740Z,-4.84
2017-01-22T07:22:37.127Z,-4.87
2017-01-22T07:23:48.556Z,-4.86
2017-01-22T07:24:59.946Z,-4.94
2017-01-22T07:26:11.337Z,-4.86
2017-01-22T07:27:22.728Z,-4.83
2017-01-22T07:28:34.120Z,-4.83
2017-01-22T07:29:45.560Z,-4.83
2017-01-22T07:30:56.950Z,-4.83
2017-01-22T07:32:08.344Z,-4.9
2017-01-22T07:33:19.737Z,-4.84
2017-01-22T07:34:31.136Z,-4.98
2017-01-22T07:35:42.582Z,-5.01
2017-01-22T07:36:54.181Z,-4.98
2017-01-22T07:38:05.575Z,-4.97
2017-01-22T07:39:16.968Z,-4.89
2017-01-22T07:40:28.366Z,-4.9
2017-01-22T07:41:39.810Z,-4.79
2017-01-22T07:42:51.207Z,-4.93
2017-01-22T07:44:02.598Z,-4.89
2017-01-22T07:45:13.991Z,-4.86
2017-01-22T07:46:25.386Z,-4.89
2017-01-22T07:47:36.826Z,-4.8
2017-01-22T07:48:48.224Z,-4.93
2017-01-22T07:49:59.828Z,-4.86
2017-01-22T07:51:11.252Z,-4.89
2017-01-22T07:52:22.648Z,-4.87
2017-01-22T07:53:34.084Z,-4.86
2017-01-22T07:54:45.483Z,-4.86
2017-01-22T07:55:56.881Z,-4.79
2017-01-22T07:57:08.282Z,-4.79
2017-01-22T07:58:19.874Z,-4.8
2017-01-22T07:59:31.518Z,-4.76
2017-01-22T08:00:43.105Z,-4.63
2017-01-22T08:01:54.506Z,-4.61
2017-01-22T08:03:06.103Z,-4.61
2017-01-22T08:04:17.503Z,-4.57
2017-01-22T08:05:28.952Z,-4.5
2017-01-22T08:06:40.343Z,-4.47
2017-01-22T08:07:51.745Z,-4.44
2017-01-22T08:09:03.133Z,-4.32
2017-01-22T08:10:14.528Z,-4.25
2017-01-22T08:11:26.207Z,-4.15
2017-01-22T08:12:37.601Z,-4.09
2017-01-22T08:13:49.396Z,-3.96
2017-01-22T08:15:00.789Z,-3.82
2017-01-22T08:16:12.187Z,-3.75
2017-01-22T08:17:23.632Z,-3.56
2017-01-22T08:18:35.027Z,-3.35
2017-01-22T08:19:46.425Z,-3.07
2017-01-22T08:20:57.826Z,-2.76
2017-01-22T08:22:09.217Z,-2.78
2017-01-22T08:23:20.666Z,-2.68
2017-01-22T08:24:32.065Z,-2.57
2017-01-22T08:25:43.461Z,-2.54
2017-01-22T08:26:54.855Z,-2.61
2017-01-22T08:28:06.454Z,-2.65
2017-01-22T08:29:17.897Z,-2.78
2017-01-22T08:30:29.291Z,-2.81
2017-01-22T08:31:40.704Z,-2.82
2017-01-22T08:32:52.105Z,-2.61
2017-01-22T08:34:03.700Z,-2.49
2017-01-22T08:35:15.340Z,-2.37
2017-01-22T08:36:26.732Z,-2.3
2017-01-22T08:37:38.333Z,-1.99
2017-01-22T08:38:49.730Z,-1.92
2017-01-22T08:40:01.133Z,-1.94
2017-01-22T08:41:12.578Z,-1.78
2017-01-22T08:42:24.178Z,-1.73
2017-01-22T08:43:35.582Z,-1.55
2017-01-22T08:44:46.982Z,-1.49
2017-01-22T08:45:58.575Z,-1.35
2017-01-22T08:47:10.026Z,-1.14
2017-01-22T08:48:21.430Z,-0.72
2017-01-22T08:49:33.028Z,-0.37
2017-01-22T08:50:44.433Z,-0.22
2017-01-22T08:51:55.836Z,-0.05
2017-01-22T08:53:07.478Z,-0.05
2017-01-22T08:54:19.082Z,-0.13
2017-01-22T08:55:30.703Z,-0.22
2017-01-22T08:56:42.100Z,-0.3
2017-01-22T08:57:53.704Z,0.01
2017-01-22T08:59:05.150Z,0.17
2017-01-22T09:00:16.544Z,0.35
2017-01-22T09:01:27.943Z,0.6
2017-01-22T09:02:39.347Z,1
2017-01-22T09:03:50.739Z,1.48
2017-01-22T09:05:02.186Z,1.84
2017-01-22T09:06:13.583Z,2.12
2017-01-22T09:07:24.990Z,2.48
2017-01-22T09:08:36.385Z,2.81
2017-01-22T09:09:47.983Z,3.13
2017-01-22T09:10:59.429Z,3.54
2017-01-22T09:12:10.832Z,3.66
2017-01-22T09:13:22.637Z,3.69
2017-01-22T09:14:34.038Z,3.74
2017-01-22T09:15:45.645Z,3.84
2017-01-22T09:16:57.302Z,4.1
2017-01-22T09:18:08.706Z,4.56
2017-01-22T09:19:20.109Z,4.9
2017-01-22T09:20:31.503Z,5.2
2017-01-22T09:21:42.916Z,5.52
2017-01-22T09:22:54.377Z,5.6
2017-01-22T09:24:05.782Z,5.75
2017-01-22T09:25:17.189Z,6.2
2017-01-22T09:26:28.610Z,6.29
2017-01-22T09:27:40.022Z,6.65
2017-01-22T09:28:51.482Z,6.93
2017-01-22T09:30:02.892Z,7
2017-01-22T09:31:14.506Z,7.18
2017-01-22T09:32:25.912Z,7.47
2017-01-22T09:33:37.317Z,7.75
2017-01-22T09:34:48.776Z,8.07
2017-01-22T09:36:00.189Z,8.39
2017-01-22T09:37:11.593Z,8.82
2017-01-22T09:38:23.001Z,9.12
2017-01-22T09:39:34.403Z,9.27
2017-01-22T09:40:45.866Z,9.45
2017-01-22T09:41:57.276Z,9.56
2017-01-22T09:43:08.690Z,9.71
2017-01-22T09:44:20.099Z,9.88
2017-01-22T09:45:31.509Z,10.17
2017-01-22T09:46:42.973Z,10.46
2017-01-22T09:47:54.389Z,10.57
2017-01-22T09:49:05.827Z,10.67
2017-01-22T09:50:17.232Z,10.73
2017-01-22T09:51:28.646Z,10.95
2017-01-22T09:52:40.303Z,11.09
2017-01-22T09:53:51.711Z,11.27
2017-01-22T09:55:03.334Z,11.46
2017-01-22T09:56:14.741Z,11.33
2017-01-22T09:57:26.152Z,11.46
2017-01-22T09:58:37.617Z,11.46
2017-01-22T09:59:49.231Z,11.57
2017-01-22T10:01:00.646Z,11.59
2017-01-22T10:02:12.096Z,11.34
2017-01-22T10:03:23.718Z,11.46
2017-01-22T10:04:35.183Z,11.53
2017-01-22T10:05:46.597Z,11.59
2017-01-22T10:06:58.022Z,11.78
2017-01-22T10:08:09.438Z,11.94
2017-01-22T10:09:20.849Z,12.03
2017-01-22T10:10:32.519Z,12.11
2017-01-22T10:11:43.943Z,12.2
2017-01-22T10:12:55.355Z,12.29
2017-01-22T10:14:06.761Z,12.51
2017-01-22T10:15:18.173Z,12.63
2017-01-22T10:16:29.866Z,12.76
2017-01-22T10:17:41.289Z,12.99
2017-01-22T10:18:52.702Z,13.21
2017-01-22T10:20:04.328Z,13.16
2017-01-22T10:21:15.943Z,13.19
2017-01-22T10:22:27.413Z,13.16
2017-01-22T10:23:38.830Z,13.5
2017-01-22T10:24:50.237Z,13.6
2017-01-22T10:26:01.658Z,13.42
2017-01-22T10:27:13.076Z,13.51
2017-01-22T10:28:24.543Z,13.42
2017-01-22T10:29:35.965Z,13.36
2017-01-22T10:30:47.378Z,13.37
2017-01-22T10:31:58.996Z,13.45
2017-01-22T10:33:10.407Z,13.44
2017-01-22T10:34:22.082Z,13.5
2017-01-22T10:35:33.509Z,13.44
2017-01-22T10:36:44.934Z,13.44
2017-01-22T10:37:56.354Z,13.47
2017-01-22T10:39:07.779Z,13.44
2017-01-22T10:40:19.250Z,13.31
2017-01-22T10:41:30.662Z,13.29
2017-01-22T10:42:42.281Z,13.21
2017-01-22T10:43:53.700Z,13.42
2017-01-22T10:45:05.120Z,13.45
2017-01-22T10:46:16.591Z,13.55
2017-01-22T10:47:28.006Z,13.44
2017-01-22T10:48:39.425Z,13.54
2017-01-22T10:49:50.860Z,13.55
2017-01-22T10:51:02.472Z,13.58
2017-01-22T10:52:13.944Z,13.39
2017-01-22T10:53:25.367Z,13.51
2017-01-22T10:54:36.776Z,13.45
2017-01-22T10:55:48.197Z,13.6
2017-01-22T10:56:59.644Z,13.69
2017-01-22T10:58:11.115Z,13.73
2017-01-22T10:59:22.531Z,13.84
2017-01-22T11:00:33.953Z,14.11
2017-01-22T11:01:45.366Z,14.13
2017-01-22T11:02:56.780Z,14.38
2017-01-22T11:04:08.251Z,14.36
2017-01-22T11:05:19.669Z,14.28
2017-01-22T11:06:31.486Z,14.24
2017-01-22T11:07:43.110Z,14.16
2017-01-22T11:08:54.520Z,14.26
2017-01-22T11:10:06.215Z,14.36
2017-01-22T11:11:17.834Z,14.26
2017-01-22T11:12:29.254Z,14.23
2017-01-22T11:13:40.672Z,14.09
2017-01-22T11:14:52.096Z,14.16
2017-01-22T11:16:03.561Z,14.26
2017-01-22T11:17:14.981Z,14.19
2017-01-22T11:18:26.396Z,14.41
2017-01-22T11:19:37.812Z,14.21
2017-01-22T11:20:49.263Z,14.09
2017-01-22T11:22:00.731Z,14.09
2017-01-22T11:23:12.147Z,13.99
2017-01-22T11:24:23.562Z,13.66
2017-01-22T11:25:34.986Z,13.42
2017-01-22T11:26:46.408Z,13.4
2017-01-22T11:27:57.871Z,13.28
2017-01-22T11:29:09.287Z,13.29
2017-01-22T11:30:20.709Z,12.94
2017-01-22T11:31:32.138Z,12.77
2017-01-22T11:32:43.562Z,12.73
2017-01-22T11:33:55.021Z,12.61
2017-01-22T11:35:06.438Z,12.44
2017-01-22T11:36:17.862Z,12.19
2017-01-22T11:37:29.278Z,12
2017-01-22T11:38:40.695Z,11.68
2017-01-22T11:39:52.175Z,11.52
2017-01-22T11:41:03.595Z,11.45
2017-01-22T11:42:15.011Z,11.28
2017-01-22T11:43:26.417Z,11.2
2017-01-22T11:44:37.837Z,11.13
2017-01-22T11:45:49.296Z,11.18
2017-01-22T11:47:01.107Z,11.2
2017-01-22T11:48:12.515Z,11.09
2017-01-22T11:49:23.929Z,10.76
2017-01-22T11:50:35.330Z,10.55
2017-01-22T11:51:46.989Z,10.17
2017-01-22T11:52:58.393Z,10
2017-01-22T11:54:09.809Z,9.93
2017-01-22T11:55:21.219Z,9.9
2017-01-22T11:56:32.628Z,9.7
2017-01-22T11:57:44.083Z,9.81
2017-01-22T11:58:55.492Z,9.77
2017-01-22T12:00:06.908Z,9.84
2017-01-22T12:01:18.322Z,9.98
2017-01-22T12:02:29.734Z,10.11
2017-01-22T12:03:41.193Z,10.33
2017-01-22T12:04:52.798Z,10.65
2017-01-22T12:06:04.246Z,10.85
2017-01-22T12:07:15.663Z,11.31
2017-01-22T12:08:27.276Z,11.31
2017-01-22T12:09:38.742Z,11.53
2017-01-22T12:10:50.147Z,11.59
2017-01-22T12:12:01.960Z,11.7
2017-01-22T12:13:13.376Z,11.64
2017-01-22T12:14:24.802Z,11.45
2017-01-22T12:15:36.459Z,11.39
2017-01-22T12:16:47.874Z,11.3
2017-01-22T12:17:59.497Z,11.35
2017-01-22T12:19:10.905Z,11.09
2017-01-22T12:20:22.302Z,11.1
2017-01-22T12:21:33.759Z,11.06
2017-01-22T12:22:45.168Z,11.08
2017-01-22T12:23:56.573Z,11
2017-01-22T12:25:07.989Z,11.38
2017-01-22T12:26:19.605Z,11.48
2017-01-22T12:27:31.095Z,11.52
2017-01-22T12:28:42.507Z,11.71
2017-01-22T12:29:54.124Z,11.86
2017-01-22T12:31:05.595Z,12.05
2017-01-22T12:32:16.999Z,12.08
2017-01-22T12:33:28.459Z,11.91
2017-01-22T12:34:39.866Z,11.97
2017-01-22T12:35:51.282Z,12.11
2017-01-22T12:37:02.687Z,12.31
2017-01-22T12:38:14.293Z,12.08
2017-01-22T12:39:25.757Z,12.11
2017-01-22T12:40:37.168Z,12.23
2017-01-22T12:41:48.780Z,12.28
2017-01-22T12:43:00.587Z,12.44
2017-01-22T12:44:12.193Z,12.59
2017-01-22T12:45:23.687Z,12.38
2017-01-22T12:46:35.294Z,12.25
2017-01-22T12:47:46.719Z,12.18
2017-01-22T12:48:58.131Z,12.26
2017-01-22T12:50:09.541Z,12.4
2017-01-22T12:51:21.206Z,12.62
2017-01-22T12:52:32.607Z,12.94
2017-01-22T12:53:44.460Z,12.96
2017-01-22T12:54:56.106Z,12.8
2017-01-22T12:56:07.523Z,12.89
2017-01-22T12:57:19.186Z,12.91
2017-01-22T12:58:30.796Z,12.86
2017-01-22T12:59:42.212Z,13.17
2017-01-22T13:00:53.634Z,13.36
2017-01-22T13:02:05.046Z,13.27
2017-01-22T13:03:16.496Z,13.13
2017-01-22T13:04:27.907Z,12.92
2017-01-22T13:05:39.313Z,12.94
2017-01-22T13:06:50.722Z,13.1
2017-01-22T13:08:02.331Z,13.11
2017-01-22T13:09:13.797Z,13.06
2017-01-22T13:10:25.207Z,13.27
2017-01-22T13:11:36.830Z,13.31
2017-01-22T13:12:48.432Z,13.35
2017-01-22T13:13:59.841Z,13.32
2017-01-22T13:15:11.500Z,13.16
2017-01-22T13:16:22.907Z,12.89
2017-01-22T13:17:34.320Z,12.92
2017-01-22T13:18:45.723Z,12.86
2017-01-22T13:19:57.133Z,12.53
2017-01-22T13:21:08.597Z,12.45
2017-01-22T13:22:20.010Z,12.48
2017-01-22T13:23:31.414Z,12.58
2017-01-22T13:24:43.016Z,12.55
2017-01-22T13:25:54.429Z,12.47
2017-01-22T13:27:05.889Z,12.37
2017-01-22T13:28:17.504Z,12.33
2017-01-22T13:29:28.913Z,12.36
2017-01-22T13:30:40.327Z,12.22
2017-01-22T13:31:51.744Z,12.08
2017-01-22T13:33:03.409Z,11.85
2017-01-22T13:34:14.817Z,11.63
2017-01-22T13:35:26.229Z,11.59
2017-01-22T13:36:37.625Z,11.56
2017-01-22T13:37:49.239Z,11.43
2017-01-22T13:39:00.693Z,11.46
2017-01-22T13:40:12.100Z,11.48
2017-01-22T13:41:23.503Z,11.63
2017-01-22T13:42:34.901Z,11.53
2017-01-22T13:43:46.304Z,11.64
2017-01-22T13:44:57.755Z,11.51
2017-01-22T13:46:09.164Z,11.27
2017-01-22T13:47:20.803Z,11.33
2017-01-22T13:48:32.210Z,11.24
2017-01-22T13:49:43.826Z,11.21
2017-01-22T13:50:55.278Z,11.09
2017-01-22T13:52:06.684Z,11.02
2017-01-22T13:53:18.088Z,11
2017-01-22T13:54:29.493Z,10.73
2017-01-22T13:55:40.923Z,10.63
2017-01-22T13:56:52.376Z,10.54
2017-01-22T13:58:03.806Z,10.33
2017-01-22T13:59:15.409Z,10.15
2017-01-22T14:00:26.815Z,9.96
2017-01-22T14:01:38.222Z,9.75
2017-01-22T14:02:49.682Z,9.55
2017-01-22T14:04:01.282Z,9.45
2017-01-22T14:05:12.891Z,9.29
2017-01-22T14:06:24.295Z,9.12
2017-01-22T14:07:35.697Z,8.98
2017-01-22T14:08:47.152Z,8.86
2017-01-22T14:09:58.565Z,8.72
2017-01-22T14:11:10.167Z,8.62
2017-01-22T14:12:21.579Z,8.53
2017-01-22T14:13:32.988Z,8.4
2017-01-22T14:14:44.643Z,8.29
2017-01-22T14:15:56.052Z,8.22
2017-01-22T14:17:07.656Z,8.16
2017-01-22T14:18:19.055Z,8.21
2017-01-22T14:19:30.467Z,7.89
2017-01-22T14:20:42.134Z,7.82
2017-01-22T14:21:53.538Z,7.82
2017-01-22T14:23:05.143Z,7.73
2017-01-22T14:24:16.549Z,7.61
2017-01-22T14:25:27.955Z,7.52
2017-01-22T14:26:39.406Z,7.48
2017-01-22T14:27:50.818Z,7.39
2017-01-22T14:29:02.223Z,7.3
2017-01-22T14:30:13.825Z,7.21
2017-01-22T14:31:25.235Z,7.21
2017-01-22T14:32:36.691Z,7.13
2017-01-22T14:33:48.122Z,7.05
2017-01-22T14:34:59.515Z,6.93
2017-01-22T14:36:11.120Z,6.83
2017-01-22T14:37:22.526Z,6.82
2017-01-22T14:38:33.983Z,6.79
2017-01-22T14:39:45.391Z,6.75
2017-01-22T14:40:56.796Z,6.72
2017-01-22T14:42:08.201Z,6.64
2017-01-22T14:43:19.601Z,6.65
2017-01-22T14:44:31.051Z,6.64
2017-01-22T14:45:42.653Z,6.55
2017-01-22T14:46:54.045Z,6.49
2017-01-22T14:48:05.862Z,6.43
2017-01-22T14:49:17.263Z,6.36
2017-01-22T14:50:28.711Z,6.37
2017-01-22T14:51:40.141Z,6.28
2017-01-22T14:52:51.535Z,6.26
2017-01-22T14:54:02.940Z,6.25
2017-01-22T14:55:14.348Z,6.14
2017-01-22T14:56:25.797Z,6.17
2017-01-22T14:57:37.204Z,6.17
2017-01-22T14:58:48.615Z,6.13
2017-01-22T15:00:00.008Z,5.99
2017-01-22T15:01:11.412Z,6
2017-01-22T15:02:22.868Z,5.96
2017-01-22T15:03:34.475Z,5.89
2017-01-22T15:04:45.879Z,5.75
2017-01-22T15:05:57.276Z,5.7
2017-01-22T15:07:08.683Z,5.73
2017-01-22T15:08:20.139Z,5.7
2017-01-22T15:09:31.559Z,5.69
2017-01-22T15:10:42.973Z,5.67
2017-01-22T15:11:54.365Z,5.55
2017-01-22T15:13:05.771Z,5.55
2017-01-22T15:14:17.169Z,5.51
2017-01-22T15:15:28.571Z,5.45
2017-01-22T15:16:39.978Z,5.42
2017-01-22T15:17:51.385Z,5.41
2017-01-22T15:19:02.843Z,5.26
2017-01-22T15:20:14.245Z,5.18
2017-01-22T15:21:25.649Z,5.1
2017-01-22T15:22:37.046Z,5.06
2017-01-22T15:23:48.451Z,5.02
2017-01-22T15:25:00.111Z,5.02
2017-01-22T15:26:11.510Z,4.97
2017-01-22T15:27:22.919Z,4.88
2017-01-22T15:28:34.523Z,4.85